HJU weather

Jupiter I Platform Helipad
Zonda De Campeche, Campeche, Mexico

Public forecast

Using degrees Celsius for public forecast. Weather courtesy of forecast.io.

Closest aviation weather report (METAR) to Jupiter I Platform Helipad

Report is more than 6 hours old.

Closest report is Ciudad del Carmen International Airport, 56.5 nm (104.5 km) SSE. Retrieved 2019/12/09 01:41 UTC (6 hours ago):

MMCE 090141Z 06007KT 7SM SKC 25/22 A3001

Closest aviation forecast (TAF) to Jupiter I Platform Helipad

Closest forecast is Ciudad del Carmen International Airport, 56.5 nm (104.5 km) SSE. Retrieved 2019/12/09 06:09 UTC (2 hours ago):

TAF MMCE 090502Z 0906/1006 06008KT P6SM SKC FM091000 12010KT P6SM SKC FM091600 36010KT P6SM SKC FM100200 03005KT P6SM SKC